sensor_id;sensor_type;location;lat;lon;timestamp;P1;durP1;ratioP1;P2;durP2;ratioP2
3847;SDS011;1939;48.720;9.166;2022-12-19T00:02:19;47.43;;;19.83;;
3847;SDS011;1939;48.720;9.166;2022-12-19T00:04:44;42.57;;;19.77;;
3847;SDS011;1939;48.720;9.166;2022-12-19T00:07:09;60.30;;;23.33;;
3847;SDS011;1939;48.720;9.166;2022-12-19T00:09:35;55.27;;;21.83;;
3847;SDS011;1939;48.720;9.166;2022-12-19T00:12:00;58.20;;;20.63;;
3847;SDS011;1939;48.720;9.166;2022-12-19T00:14:25;54.37;;;23.00;;
3847;SDS011;1939;48.720;9.166;2022-12-19T00:16:50;54.67;;;23.53;;
3847;SDS011;1939;48.720;9.166;2022-12-19T00:19:15;52.43;;;21.30;;
3847;SDS011;1939;48.720;9.166;2022-12-19T00:21:41;53.67;;;25.20;;
3847;SDS011;1939;48.720;9.166;2022-12-19T00:24:06;52.00;;;21.60;;
3847;SDS011;1939;48.720;9.166;2022-12-19T00:26:35;52.50;;;22.03;;
3847;SDS011;1939;48.720;9.166;2022-12-19T00:29:02;46.70;;;21.43;;
3847;SDS011;1939;48.720;9.166;2022-12-19T00:31:28;55.80;;;22.57;;
3847;SDS011;1939;48.720;9.166;2022-12-19T00:33:53;47.47;;;20.40;;
3847;SDS011;1939;48.720;9.166;2022-12-19T00:36:20;65.90;;;23.33;;
3847;SDS011;1939;48.720;9.166;2022-12-19T00:38:45;54.83;;;23.03;;
3847;SDS011;1939;48.720;9.166;2022-12-19T00:41:12;53.93;;;22.97;;
3847;SDS011;1939;48.720;9.166;2022-12-19T00:43:38;55.50;;;22.50;;
3847;SDS011;1939;48.720;9.166;2022-12-19T00:46:04;53.47;;;22.20;;
3847;SDS011;1939;48.720;9.166;2022-12-19T00:48:30;52.43;;;21.93;;
3847;SDS011;1939;48.720;9.166;2022-12-19T00:51:02;45.23;;;21.07;;
3847;SDS011;1939;48.720;9.166;2022-12-19T00:53:28;59.10;;;23.77;;
3847;SDS011;1939;48.720;9.166;2022-12-19T00:55:53;56.43;;;24.10;;
3847;SDS011;1939;48.720;9.166;2022-12-19T00:58:18;63.90;;;22.50;;
3847;SDS011;1939;48.720;9.166;2022-12-19T01:00:43;57.40;;;22.90;;
3847;SDS011;1939;48.720;9.166;2022-12-19T01:03:09;55.67;;;25.30;;
3847;SDS011;1939;48.720;9.166;2022-12-19T01:05:34;46.73;;;20.83;;
3847;SDS011;1939;48.720;9.166;2022-12-19T01:07:59;46.33;;;21.27;;
3847;SDS011;1939;48.720;9.166;2022-12-19T01:10:24;58.20;;;24.87;;
3847;SDS011;1939;48.720;9.166;2022-12-19T01:12:50;60.57;;;26.27;;
3847;SDS011;1939;48.720;9.166;2022-12-19T01:15:16;49.87;;;22.87;;
3847;SDS011;1939;48.720;9.166;2022-12-19T01:17:42;50.33;;;21.83;;
3847;SDS011;1939;48.720;9.166;2022-12-19T01:20:07;51.63;;;23.63;;
3847;SDS011;1939;48.720;9.166;2022-12-19T01:22:32;52.57;;;22.90;;
3847;SDS011;1939;48.720;9.166;2022-12-19T01:24:58;65.63;;;28.30;;
3847;SDS011;1939;48.720;9.166;2022-12-19T01:27:23;52.07;;;23.20;;
3847;SDS011;1939;48.720;9.166;2022-12-19T01:29:48;59.67;;;25.17;;
3847;SDS011;1939;48.720;9.166;2022-12-19T01:32:13;60.97;;;25.67;;
3847;SDS011;1939;48.720;9.166;2022-12-19T01:34:39;72.80;;;28.77;;
3847;SDS011;1939;48.720;9.166;2022-12-19T01:37:04;62.37;;;24.53;;
3847;SDS011;1939;48.720;9.166;2022-12-19T01:39:29;61.90;;;26.03;;
3847;SDS011;1939;48.720;9.166;2022-12-19T01:41:54;57.40;;;24.23;;
3847;SDS011;1939;48.720;9.166;2022-12-19T01:44:22;66.17;;;27.00;;
3847;SDS011;1939;48.720;9.166;2022-12-19T01:46:48;69.67;;;26.57;;
3847;SDS011;1939;48.720;9.166;2022-12-19T01:49:20;58.83;;;26.63;;
3847;SDS011;1939;48.720;9.166;2022-12-19T01:51:47;51.90;;;26.77;;
3847;SDS011;1939;48.720;9.166;2022-12-19T01:54:16;53.13;;;24.07;;
3847;SDS011;1939;48.720;9.166;2022-12-19T01:56:45;65.23;;;26.83;;
3847;SDS011;1939;48.720;9.166;2022-12-19T01:59:13;63.03;;;26.67;;
3847;SDS011;1939;48.720;9.166;2022-12-19T02:01:39;61.27;;;27.97;;
3847;SDS011;1939;48.720;9.166;2022-12-19T02:04:05;68.53;;;24.43;;
3847;SDS011;1939;48.720;9.166;2022-12-19T02:06:30;61.63;;;27.13;;
3847;SDS011;1939;48.720;9.166;2022-12-19T02:08:58;65.30;;;25.17;;
3847;SDS011;1939;48.720;9.166;2022-12-19T02:11:24;62.53;;;26.67;;
3847;SDS011;1939;48.720;9.166;2022-12-19T02:13:49;64.83;;;26.00;;
3847;SDS011;1939;48.720;9.166;2022-12-19T02:21:26;75.57;;;28.60;;
3847;SDS011;1939;48.720;9.166;2022-12-19T02:29:06;60.73;;;26.80;;
3847;SDS011;1939;48.720;9.166;2022-12-19T02:31:54;67.33;;;28.40;;
3847;SDS011;1939;48.720;9.166;2022-12-19T02:36:50;61.80;;;28.47;;
3847;SDS011;1939;48.720;9.166;2022-12-19T02:39:24;59.20;;;29.63;;
3847;SDS011;1939;48.720;9.166;2022-12-19T02:41:53;68.67;;;28.77;;
3847;SDS011;1939;48.720;9.166;2022-12-19T02:44:24;68.37;;;28.53;;
3847;SDS011;1939;48.720;9.166;2022-12-19T02:46:51;66.83;;;28.70;;
3847;SDS011;1939;48.720;9.166;2022-12-19T02:49:16;65.23;;;28.40;;
3847;SDS011;1939;48.720;9.166;2022-12-19T02:51:41;62.57;;;27.73;;
3847;SDS011;1939;48.720;9.166;2022-12-19T02:54:06;63.40;;;26.47;;
3847;SDS011;1939;48.720;9.166;2022-12-19T03:01:35;64.40;;;28.57;;
3847;SDS011;1939;48.720;9.166;2022-12-19T03:08:54;67.63;;;28.10;;
3847;SDS011;1939;48.720;9.166;2022-12-19T03:11:23;74.43;;;28.00;;
3847;SDS011;1939;48.720;9.166;2022-12-19T03:13:54;65.47;;;28.70;;
3847;SDS011;1939;48.720;9.166;2022-12-19T03:16:20;64.47;;;27.40;;
3847;SDS011;1939;48.720;9.166;2022-12-19T03:18:46;63.73;;;28.10;;
3847;SDS011;1939;48.720;9.166;2022-12-19T03:21:16;59.03;;;25.70;;
3847;SDS011;1939;48.720;9.166;2022-12-19T03:23:44;67.70;;;28.20;;
3847;SDS011;1939;48.720;9.166;2022-12-19T03:26:11;67.60;;;28.07;;
3847;SDS011;1939;48.720;9.166;2022-12-19T03:31:07;58.20;;;26.70;;
3847;SDS011;1939;48.720;9.166;2022-12-19T03:33:33;55.43;;;25.30;;
3847;SDS011;1939;48.720;9.166;2022-12-19T03:36:02;60.97;;;28.27;;
3847;SDS011;1939;48.720;9.166;2022-12-19T03:38:28;79.17;;;30.97;;
3847;SDS011;1939;48.720;9.166;2022-12-19T03:40:54;62.27;;;26.77;;
3847;SDS011;1939;48.720;9.166;2022-12-19T03:43:20;81.80;;;30.03;;
3847;SDS011;1939;48.720;9.166;2022-12-19T03:48:32;66.90;;;27.30;;
3847;SDS011;1939;48.720;9.166;2022-12-19T03:51:45;72.03;;;28.07;;
3847;SDS011;1939;48.720;9.166;2022-12-19T03:53:47;75.70;;;28.73;;
3847;SDS011;1939;48.720;9.166;2022-12-19T03:56:19;68.23;;;30.20;;
3847;SDS011;1939;48.720;9.166;2022-12-19T03:58:51;64.80;;;28.47;;
3847;SDS011;1939;48.720;9.166;2022-12-19T04:01:18;60.13;;;29.60;;
3847;SDS011;1939;48.720;9.166;2022-12-19T04:03:45;66.60;;;28.90;;
3847;SDS011;1939;48.720;9.166;2022-12-19T04:06:10;58.83;;;28.67;;
3847;SDS011;1939;48.720;9.166;2022-12-19T04:08:37;59.93;;;27.13;;
3847;SDS011;1939;48.720;9.166;2022-12-19T04:11:04;59.30;;;28.30;;
3847;SDS011;1939;48.720;9.166;2022-12-19T04:13:35;65.57;;;28.87;;
3847;SDS011;1939;48.720;9.166;2022-12-19T04:16:07;64.03;;;27.77;;
3847;SDS011;1939;48.720;9.166;2022-12-19T04:18:35;65.23;;;28.43;;
3847;SDS011;1939;48.720;9.166;2022-12-19T04:21:02;71.60;;;29.63;;
3847;SDS011;1939;48.720;9.166;2022-12-19T04:23:30;67.60;;;29.07;;
3847;SDS011;1939;48.720;9.166;2022-12-19T04:25:58;62.07;;;29.90;;
3847;SDS011;1939;48.720;9.166;2022-12-19T04:28:25;62.30;;;27.50;;
3847;SDS011;1939;48.720;9.166;2022-12-19T04:30:53;64.40;;;27.50;;
3847;SDS011;1939;48.720;9.166;2022-12-19T04:33:19;60.70;;;25.67;;
3847;SDS011;1939;48.720;9.166;2022-12-19T04:35:44;59.20;;;26.80;;
3847;SDS011;1939;48.720;9.166;2022-12-19T04:38:09;62.37;;;27.03;;
3847;SDS011;1939;48.720;9.166;2022-12-19T04:40:34;67.13;;;28.10;;
3847;SDS011;1939;48.720;9.166;2022-12-19T04:43:00;69.33;;;27.13;;
3847;SDS011;1939;48.720;9.166;2022-12-19T04:45:25;62.17;;;28.80;;
3847;SDS011;1939;48.720;9.166;2022-12-19T04:47:50;63.97;;;27.40;;
3847;SDS011;1939;48.720;9.166;2022-12-19T04:50:16;58.87;;;26.93;;
3847;SDS011;1939;48.720;9.166;2022-12-19T04:52:41;61.90;;;27.10;;
3847;SDS011;1939;48.720;9.166;2022-12-19T04:55:06;55.10;;;24.23;;
3847;SDS011;1939;48.720;9.166;2022-12-19T04:57:31;64.77;;;26.33;;
3847;SDS011;1939;48.720;9.166;2022-12-19T04:59:57;56.90;;;25.00;;
3847;SDS011;1939;48.720;9.166;2022-12-19T05:02:22;155.27;;;52.73;;
3847;SDS011;1939;48.720;9.166;2022-12-19T05:04:48;70.50;;;28.60;;
3847;SDS011;1939;48.720;9.166;2022-12-19T05:07:13;61.07;;;26.27;;
3847;SDS011;1939;48.720;9.166;2022-12-19T05:09:38;58.63;;;26.27;;
3847;SDS011;1939;48.720;9.166;2022-12-19T05:12:04;62.13;;;26.87;;
3847;SDS011;1939;48.720;9.166;2022-12-19T05:14:30;66.30;;;27.10;;
3847;SDS011;1939;48.720;9.166;2022-12-19T05:16:56;63.50;;;27.90;;
3847;SDS011;1939;48.720;9.166;2022-12-19T05:19:21;63.47;;;28.10;;
3847;SDS011;1939;48.720;9.166;2022-12-19T05:21:46;56.00;;;26.47;;
3847;SDS011;1939;48.720;9.166;2022-12-19T05:24:11;63.83;;;27.97;;
3847;SDS011;1939;48.720;9.166;2022-12-19T05:26:36;56.13;;;27.77;;
3847;SDS011;1939;48.720;9.166;2022-12-19T05:29:02;72.90;;;27.97;;
3847;SDS011;1939;48.720;9.166;2022-12-19T05:31:27;54.20;;;26.17;;
3847;SDS011;1939;48.720;9.166;2022-12-19T05:33:52;58.57;;;25.33;;
3847;SDS011;1939;48.720;9.166;2022-12-19T05:36:17;56.17;;;25.23;;
3847;SDS011;1939;48.720;9.166;2022-12-19T05:38:44;59.37;;;26.67;;
3847;SDS011;1939;48.720;9.166;2022-12-19T05:41:10;73.20;;;28.07;;
3847;SDS011;1939;48.720;9.166;2022-12-19T05:43:35;66.53;;;29.60;;
3847;SDS011;1939;48.720;9.166;2022-12-19T05:46:00;71.93;;;27.77;;
3847;SDS011;1939;48.720;9.166;2022-12-19T05:48:27;69.67;;;27.43;;
3847;SDS011;1939;48.720;9.166;2022-12-19T05:50:52;51.97;;;24.23;;
3847;SDS011;1939;48.720;9.166;2022-12-19T05:53:18;70.87;;;28.47;;
3847;SDS011;1939;48.720;9.166;2022-12-19T05:55:43;68.00;;;27.13;;
3847;SDS011;1939;48.720;9.166;2022-12-19T05:58:08;59.80;;;27.87;;
3847;SDS011;1939;48.720;9.166;2022-12-19T06:00:34;58.43;;;26.97;;
3847;SDS011;1939;48.720;9.166;2022-12-19T06:02:59;56.57;;;26.33;;
3847;SDS011;1939;48.720;9.166;2022-12-19T06:05:24;63.20;;;25.03;;
3847;SDS011;1939;48.720;9.166;2022-12-19T06:07:49;68.57;;;28.77;;
3847;SDS011;1939;48.720;9.166;2022-12-19T06:10:14;77.47;;;27.93;;
3847;SDS011;1939;48.720;9.166;2022-12-19T06:12:40;76.63;;;29.60;;
3847;SDS011;1939;48.720;9.166;2022-12-19T06:15:05;65.53;;;26.33;;
3847;SDS011;1939;48.720;9.166;2022-12-19T06:17:30;68.43;;;27.13;;
3847;SDS011;1939;48.720;9.166;2022-12-19T06:19:56;69.17;;;28.07;;
3847;SDS011;1939;48.720;9.166;2022-12-19T06:22:21;66.53;;;26.47;;
3847;SDS011;1939;48.720;9.166;2022-12-19T06:24:46;71.27;;;28.83;;
3847;SDS011;1939;48.720;9.166;2022-12-19T06:27:11;61.83;;;27.03;;
3847;SDS011;1939;48.720;9.166;2022-12-19T06:29:36;65.60;;;28.70;;
3847;SDS011;1939;48.720;9.166;2022-12-19T06:32:02;58.63;;;26.90;;
3847;SDS011;1939;48.720;9.166;2022-12-19T06:34:27;65.07;;;27.57;;
3847;SDS011;1939;48.720;9.166;2022-12-19T06:36:52;62.47;;;27.90;;
3847;SDS011;1939;48.720;9.166;2022-12-19T06:39:17;72.40;;;27.73;;
3847;SDS011;1939;48.720;9.166;2022-12-19T06:41:43;61.53;;;26.87;;
3847;SDS011;1939;48.720;9.166;2022-12-19T06:44:26;61.57;;;26.73;;
3847;SDS011;1939;48.720;9.166;2022-12-19T06:46:52;58.30;;;26.13;;
3847;SDS011;1939;48.720;9.166;2022-12-19T06:49:17;62.60;;;28.27;;
3847;SDS011;1939;48.720;9.166;2022-12-19T06:51:42;54.27;;;27.07;;
3847;SDS011;1939;48.720;9.166;2022-12-19T06:54:08;70.47;;;28.40;;
3847;SDS011;1939;48.720;9.166;2022-12-19T06:56:34;70.47;;;28.13;;
3847;SDS011;1939;48.720;9.166;2022-12-19T06:59:00;68.83;;;30.30;;
3847;SDS011;1939;48.720;9.166;2022-12-19T07:04:09;75.33;;;29.47;;
3847;SDS011;1939;48.720;9.166;2022-12-19T07:06:34;77.73;;;28.87;;
3847;SDS011;1939;48.720;9.166;2022-12-19T07:09:00;64.20;;;28.37;;
3847;SDS011;1939;48.720;9.166;2022-12-19T07:11:25;79.60;;;29.60;;
3847;SDS011;1939;48.720;9.166;2022-12-19T07:13:50;66.40;;;25.07;;
3847;SDS011;1939;48.720;9.166;2022-12-19T07:16:15;71.37;;;28.00;;
3847;SDS011;1939;48.720;9.166;2022-12-19T07:18:40;61.47;;;24.90;;
3847;SDS011;1939;48.720;9.166;2022-12-19T07:21:06;57.20;;;26.67;;
3847;SDS011;1939;48.720;9.166;2022-12-19T07:23:32;54.77;;;25.93;;
3847;SDS011;1939;48.720;9.166;2022-12-19T07:25:58;65.80;;;26.50;;
3847;SDS011;1939;48.720;9.166;2022-12-19T07:28:23;62.30;;;25.93;;
3847;SDS011;1939;48.720;9.166;2022-12-19T07:30:48;59.07;;;26.87;;
3847;SDS011;1939;48.720;9.166;2022-12-19T07:33:13;59.73;;;25.10;;
3847;SDS011;1939;48.720;9.166;2022-12-19T07:35:39;61.43;;;26.17;;
3847;SDS011;1939;48.720;9.166;2022-12-19T07:38:04;76.37;;;29.87;;
3847;SDS011;1939;48.720;9.166;2022-12-19T07:40:30;51.00;;;24.57;;
3847;SDS011;1939;48.720;9.166;2022-12-19T07:42:59;77.27;;;28.07;;
3847;SDS011;1939;48.720;9.166;2022-12-19T07:45:25;74.33;;;26.20;;
3847;SDS011;1939;48.720;9.166;2022-12-19T07:47:50;77.30;;;26.90;;
3847;SDS011;1939;48.720;9.166;2022-12-19T07:50:15;76.47;;;28.20;;
3847;SDS011;1939;48.720;9.166;2022-12-19T07:52:40;57.27;;;23.50;;
3847;SDS011;1939;48.720;9.166;2022-12-19T07:55:06;67.63;;;27.40;;
3847;SDS011;1939;48.720;9.166;2022-12-19T07:57:31;71.53;;;30.67;;
3847;SDS011;1939;48.720;9.166;2022-12-19T07:59:57;80.50;;;30.90;;
3847;SDS011;1939;48.720;9.166;2022-12-19T08:02:22;72.30;;;29.70;;
3847;SDS011;1939;48.720;9.166;2022-12-19T08:04:47;77.43;;;29.27;;
3847;SDS011;1939;48.720;9.166;2022-12-19T08:07:12;69.03;;;28.80;;
3847;SDS011;1939;48.720;9.166;2022-12-19T08:09:37;72.47;;;31.10;;
3847;SDS011;1939;48.720;9.166;2022-12-19T08:12:03;79.40;;;27.93;;
3847;SDS011;1939;48.720;9.166;2022-12-19T08:14:28;74.47;;;26.10;;
3847;SDS011;1939;48.720;9.166;2022-12-19T08:16:53;69.60;;;28.13;;
3847;SDS011;1939;48.720;9.166;2022-12-19T08:19:18;63.37;;;27.30;;
3847;SDS011;1939;48.720;9.166;2022-12-19T08:21:44;58.97;;;24.87;;
3847;SDS011;1939;48.720;9.166;2022-12-19T08:24:09;60.23;;;25.23;;
3847;SDS011;1939;48.720;9.166;2022-12-19T08:26:35;65.00;;;27.77;;
3847;SDS011;1939;48.720;9.166;2022-12-19T08:29:00;55.07;;;25.77;;
3847;SDS011;1939;48.720;9.166;2022-12-19T08:31:26;52.60;;;22.50;;
3847;SDS011;1939;48.720;9.166;2022-12-19T08:33:51;56.83;;;22.27;;
3847;SDS011;1939;48.720;9.166;2022-12-19T08:36:17;56.10;;;21.47;;
3847;SDS011;1939;48.720;9.166;2022-12-19T08:38:46;47.27;;;20.30;;
3847;SDS011;1939;48.720;9.166;2022-12-19T08:41:12;52.70;;;22.40;;
3847;SDS011;1939;48.720;9.166;2022-12-19T08:43:37;61.03;;;23.77;;
3847;SDS011;1939;48.720;9.166;2022-12-19T08:46:03;48.90;;;21.23;;
3847;SDS011;1939;48.720;9.166;2022-12-19T08:48:28;50.00;;;25.00;;
3847;SDS011;1939;48.720;9.166;2022-12-19T08:50:55;47.37;;;20.37;;
3847;SDS011;1939;48.720;9.166;2022-12-19T08:53:21;40.90;;;18.53;;
3847;SDS011;1939;48.720;9.166;2022-12-19T08:55:46;53.17;;;19.23;;
3847;SDS011;1939;48.720;9.166;2022-12-19T08:58:13;47.57;;;19.47;;
3847;SDS011;1939;48.720;9.166;2022-12-19T09:00:38;45.30;;;18.87;;
3847;SDS011;1939;48.720;9.166;2022-12-19T09:03:03;39.20;;;16.07;;
3847;SDS011;1939;48.720;9.166;2022-12-19T09:05:29;35.07;;;16.67;;
3847;SDS011;1939;48.720;9.166;2022-12-19T09:07:54;36.90;;;18.40;;
3847;SDS011;1939;48.720;9.166;2022-12-19T09:10:19;32.07;;;16.43;;
3847;SDS011;1939;48.720;9.166;2022-12-19T09:12:44;37.33;;;15.10;;
3847;SDS011;1939;48.720;9.166;2022-12-19T09:15:09;38.80;;;16.03;;
3847;SDS011;1939;48.720;9.166;2022-12-19T09:17:35;35.10;;;16.20;;
3847;SDS011;1939;48.720;9.166;2022-12-19T09:20:00;39.87;;;17.50;;
3847;SDS011;1939;48.720;9.166;2022-12-19T09:22:25;41.97;;;18.90;;
3847;SDS011;1939;48.720;9.166;2022-12-19T09:24:50;48.60;;;20.93;;
3847;SDS011;1939;48.720;9.166;2022-12-19T09:27:15;50.53;;;22.10;;
3847;SDS011;1939;48.720;9.166;2022-12-19T09:29:41;43.10;;;18.90;;
3847;SDS011;1939;48.720;9.166;2022-12-19T09:32:07;38.13;;;18.87;;
3847;SDS011;1939;48.720;9.166;2022-12-19T09:34:32;50.27;;;21.67;;
3847;SDS011;1939;48.720;9.166;2022-12-19T09:36:58;38.00;;;18.30;;
3847;SDS011;1939;48.720;9.166;2022-12-19T09:39:23;40.07;;;17.57;;
3847;SDS011;1939;48.720;9.166;2022-12-19T09:44:37;54.80;;;26.60;;
3847;SDS011;1939;48.720;9.166;2022-12-19T09:47:17;49.10;;;21.70;;
3847;SDS011;1939;48.720;9.166;2022-12-19T09:49:43;45.70;;;21.07;;
3847;SDS011;1939;48.720;9.166;2022-12-19T09:52:14;39.97;;;19.87;;
3847;SDS011;1939;48.720;9.166;2022-12-19T09:54:43;40.73;;;19.07;;
3847;SDS011;1939;48.720;9.166;2022-12-19T09:57:14;49.63;;;20.60;;
3847;SDS011;1939;48.720;9.166;2022-12-19T09:59:53;45.23;;;21.20;;
3847;SDS011;1939;48.720;9.166;2022-12-19T10:02:25;43.03;;;21.50;;
3847;SDS011;1939;48.720;9.166;2022-12-19T10:04:56;50.07;;;22.63;;
3847;SDS011;1939;48.720;9.166;2022-12-19T10:07:26;42.80;;;20.77;;
3847;SDS011;1939;48.720;9.166;2022-12-19T10:09:51;59.13;;;22.20;;
3847;SDS011;1939;48.720;9.166;2022-12-19T10:12:20;42.00;;;20.40;;
3847;SDS011;1939;48.720;9.166;2022-12-19T10:27:50;35.67;;;19.60;;
3847;SDS011;1939;48.720;9.166;2022-12-19T10:30:17;50.47;;;20.80;;
3847;SDS011;1939;48.720;9.166;2022-12-19T10:35:19;34.30;;;17.60;;
3847;SDS011;1939;48.720;9.166;2022-12-19T10:37:49;34.70;;;18.73;;
3847;SDS011;1939;48.720;9.166;2022-12-19T10:40:21;36.47;;;18.00;;
3847;SDS011;1939;48.720;9.166;2022-12-19T10:42:50;32.57;;;16.70;;
3847;SDS011;1939;48.720;9.166;2022-12-19T10:45:17;38.43;;;16.57;;
3847;SDS011;1939;48.720;9.166;2022-12-19T10:47:43;29.17;;;14.87;;
3847;SDS011;1939;48.720;9.166;2022-12-19T10:50:12;31.33;;;14.63;;
3847;SDS011;1939;48.720;9.166;2022-12-19T10:53:11;32.07;;;16.90;;
3847;SDS011;1939;48.720;9.166;2022-12-19T10:58:48;32.27;;;16.63;;
3847;SDS011;1939;48.720;9.166;2022-12-19T11:03:20;28.83;;;14.57;;
3847;SDS011;1939;48.720;9.166;2022-12-19T11:05:47;26.93;;;14.40;;
3847;SDS011;1939;48.720;9.166;2022-12-19T11:08:17;25.30;;;14.53;;
3847;SDS011;1939;48.720;9.166;2022-12-19T11:10:49;38.00;;;23.20;;
3847;SDS011;1939;48.720;9.166;2022-12-19T11:13:17;41.87;;;19.70;;
3847;SDS011;1939;48.720;9.166;2022-12-19T11:15:56;36.73;;;19.07;;
3847;SDS011;1939;48.720;9.166;2022-12-19T11:18:23;46.00;;;21.57;;
3847;SDS011;1939;48.720;9.166;2022-12-19T11:21:01;42.63;;;18.40;;
3847;SDS011;1939;48.720;9.166;2022-12-19T11:23:28;35.33;;;17.23;;
3847;SDS011;1939;48.720;9.166;2022-12-19T11:26:00;31.57;;;18.47;;
3847;SDS011;1939;48.720;9.166;2022-12-19T11:28:35;30.67;;;17.27;;
3847;SDS011;1939;48.720;9.166;2022-12-19T11:31:06;31.90;;;16.80;;
3847;SDS011;1939;48.720;9.166;2022-12-19T11:33:32;35.43;;;17.00;;
3847;SDS011;1939;48.720;9.166;2022-12-19T11:35:58;37.33;;;21.20;;
3847;SDS011;1939;48.720;9.166;2022-12-19T11:41:14;33.93;;;18.37;;
3847;SDS011;1939;48.720;9.166;2022-12-19T11:46:07;39.23;;;19.17;;
3847;SDS011;1939;48.720;9.166;2022-12-19T11:48:36;43.67;;;21.07;;
3847;SDS011;1939;48.720;9.166;2022-12-19T11:56:23;36.83;;;18.40;;
3847;SDS011;1939;48.720;9.166;2022-12-19T11:58:49;41.50;;;20.77;;
3847;SDS011;1939;48.720;9.166;2022-12-19T12:04:03;54.63;;;22.60;;
3847;SDS011;1939;48.720;9.166;2022-12-19T12:06:32;38.97;;;20.40;;
3847;SDS011;1939;48.720;9.166;2022-12-19T12:09:01;42.60;;;20.40;;
3847;SDS011;1939;48.720;9.166;2022-12-19T12:14:18;41.97;;;20.60;;
3847;SDS011;1939;48.720;9.166;2022-12-19T12:17:06;41.17;;;20.73;;
3847;SDS011;1939;48.720;9.166;2022-12-19T12:19:41;41.70;;;19.30;;
3847;SDS011;1939;48.720;9.166;2022-12-19T12:24:44;44.70;;;21.33;;
3847;SDS011;1939;48.720;9.166;2022-12-19T12:27:28;45.97;;;22.90;;
3847;SDS011;1939;48.720;9.166;2022-12-19T12:35:25;27.97;;;15.60;;
3847;SDS011;1939;48.720;9.166;2022-12-19T12:42:57;30.80;;;14.60;;
3847;SDS011;1939;48.720;9.166;2022-12-19T12:45:45;36.50;;;18.43;;
3847;SDS011;1939;48.720;9.166;2022-12-19T12:48:21;28.07;;;15.17;;
3847;SDS011;1939;48.720;9.166;2022-12-19T12:50:48;31.60;;;15.30;;
3847;SDS011;1939;48.720;9.166;2022-12-19T12:53:18;27.33;;;13.40;;
3847;SDS011;1939;48.720;9.166;2022-12-19T12:55:44;30.17;;;14.80;;
3847;SDS011;1939;48.720;9.166;2022-12-19T13:01:06;23.70;;;13.40;;
3847;SDS011;1939;48.720;9.166;2022-12-19T13:03:31;24.00;;;12.43;;
3847;SDS011;1939;48.720;9.166;2022-12-19T13:06:04;20.40;;;12.27;;
3847;SDS011;1939;48.720;9.166;2022-12-19T13:11:02;20.03;;;11.73;;
3847;SDS011;1939;48.720;9.166;2022-12-19T13:13:47;27.93;;;15.57;;
3847;SDS011;1939;48.720;9.166;2022-12-19T13:19:21;25.27;;;13.73;;
3847;SDS011;1939;48.720;9.166;2022-12-19T13:24:36;58.63;;;23.47;;
3847;SDS011;1939;48.720;9.166;2022-12-19T13:27:01;41.90;;;20.57;;
3847;SDS011;1939;48.720;9.166;2022-12-19T13:29:31;39.43;;;21.03;;
3847;SDS011;1939;48.720;9.166;2022-12-19T13:32:07;40.40;;;20.03;;
3847;SDS011;1939;48.720;9.166;2022-12-19T13:34:34;34.75;;;19.67;;
3847;SDS011;1939;48.720;9.166;2022-12-19T13:37:19;34.17;;;20.27;;
3847;SDS011;1939;48.720;9.166;2022-12-19T13:42:20;24.97;;;14.07;;
3847;SDS011;1939;48.720;9.166;2022-12-19T13:45:06;32.80;;;14.97;;
3847;SDS011;1939;48.720;9.166;2022-12-19T13:47:33;32.93;;;15.10;;
3847;SDS011;1939;48.720;9.166;2022-12-19T13:49:59;26.00;;;14.63;;
3847;SDS011;1939;48.720;9.166;2022-12-19T13:52:27;23.90;;;13.27;;
3847;SDS011;1939;48.720;9.166;2022-12-19T13:54:54;30.93;;;14.50;;
3847;SDS011;1939;48.720;9.166;2022-12-19T13:57:21;33.23;;;14.77;;
3847;SDS011;1939;48.720;9.166;2022-12-19T13:59:47;24.13;;;12.90;;
3847;SDS011;1939;48.720;9.166;2022-12-19T14:02:15;27.30;;;14.50;;
3847;SDS011;1939;48.720;9.166;2022-12-19T14:04:41;27.67;;;13.73;;
3847;SDS011;1939;48.720;9.166;2022-12-19T14:10:06;32.30;;;14.07;;
3847;SDS011;1939;48.720;9.166;2022-12-19T14:12:34;27.23;;;14.57;;
3847;SDS011;1939;48.720;9.166;2022-12-19T14:15:36;27.47;;;13.70;;
3847;SDS011;1939;48.720;9.166;2022-12-19T14:18:08;27.80;;;15.47;;
3847;SDS011;1939;48.720;9.166;2022-12-19T14:20:39;25.53;;;12.70;;
3847;SDS011;1939;48.720;9.166;2022-12-19T14:23:04;30.67;;;15.17;;
3847;SDS011;1939;48.720;9.166;2022-12-19T14:25:37;26.10;;;12.90;;
3847;SDS011;1939;48.720;9.166;2022-12-19T14:28:10;23.17;;;13.60;;
3847;SDS011;1939;48.720;9.166;2022-12-19T14:30:37;28.87;;;12.80;;
3847;SDS011;1939;48.720;9.166;2022-12-19T14:33:03;25.73;;;14.30;;
3847;SDS011;1939;48.720;9.166;2022-12-19T14:35:35;24.50;;;14.53;;
3847;SDS011;1939;48.720;9.166;2022-12-19T14:38:02;29.80;;;14.80;;
3847;SDS011;1939;48.720;9.166;2022-12-19T14:40:29;29.83;;;13.43;;
3847;SDS011;1939;48.720;9.166;2022-12-19T14:42:56;25.60;;;13.13;;
3847;SDS011;1939;48.720;9.166;2022-12-19T14:45:41;25.60;;;14.00;;
3847;SDS011;1939;48.720;9.166;2022-12-19T14:48:24;22.37;;;11.97;;
3847;SDS011;1939;48.720;9.166;2022-12-19T14:51:00;23.80;;;11.90;;
3847;SDS011;1939;48.720;9.166;2022-12-19T14:53:26;26.30;;;14.03;;
3847;SDS011;1939;48.720;9.166;2022-12-19T14:55:59;23.17;;;13.57;;
3847;SDS011;1939;48.720;9.166;2022-12-19T14:58:30;39.30;;;16.63;;
3847;SDS011;1939;48.720;9.166;2022-12-19T15:00:55;26.77;;;15.70;;
3847;SDS011;1939;48.720;9.166;2022-12-19T15:03:28;30.87;;;15.40;;
3847;SDS011;1939;48.720;9.166;2022-12-19T15:06:07;31.53;;;15.40;;
3847;SDS011;1939;48.720;9.166;2022-12-19T15:08:36;24.70;;;15.77;;
3847;SDS011;1939;48.720;9.166;2022-12-19T15:11:02;33.93;;;14.57;;
3847;SDS011;1939;48.720;9.166;2022-12-19T15:13:51;29.70;;;15.47;;
3847;SDS011;1939;48.720;9.166;2022-12-19T15:19:11;27.63;;;14.17;;
3847;SDS011;1939;48.720;9.166;2022-12-19T15:21:36;30.00;;;14.03;;
3847;SDS011;1939;48.720;9.166;2022-12-19T15:24:01;27.57;;;16.23;;
3847;SDS011;1939;48.720;9.166;2022-12-19T15:26:28;24.90;;;14.70;;
3847;SDS011;1939;48.720;9.166;2022-12-19T15:28:54;25.80;;;14.07;;
3847;SDS011;1939;48.720;9.166;2022-12-19T15:31:33;23.70;;;13.40;;
3847;SDS011;1939;48.720;9.166;2022-12-19T15:33:59;25.93;;;14.23;;
3847;SDS011;1939;48.720;9.166;2022-12-19T15:36:24;26.43;;;12.00;;
3847;SDS011;1939;48.720;9.166;2022-12-19T15:38:49;29.73;;;12.90;;
3847;SDS011;1939;48.720;9.166;2022-12-19T15:41:16;25.47;;;14.60;;
3847;SDS011;1939;48.720;9.166;2022-12-19T15:43:44;29.20;;;13.60;;
3847;SDS011;1939;48.720;9.166;2022-12-19T15:46:09;25.97;;;12.97;;
3847;SDS011;1939;48.720;9.166;2022-12-19T15:48:36;22.70;;;11.70;;
3847;SDS011;1939;48.720;9.166;2022-12-19T15:51:03;32.23;;;14.60;;
3847;SDS011;1939;48.720;9.166;2022-12-19T15:53:28;31.47;;;13.70;;
3847;SDS011;1939;48.720;9.166;2022-12-19T15:55:54;30.93;;;14.47;;
3847;SDS011;1939;48.720;9.166;2022-12-19T15:58:20;22.00;;;12.83;;
3847;SDS011;1939;48.720;9.166;2022-12-19T16:00:48;35.20;;;15.60;;
3847;SDS011;1939;48.720;9.166;2022-12-19T16:03:13;29.80;;;15.73;;
3847;SDS011;1939;48.720;9.166;2022-12-19T16:05:39;25.40;;;14.97;;
3847;SDS011;1939;48.720;9.166;2022-12-19T16:08:17;33.80;;;16.53;;
3847;SDS011;1939;48.720;9.166;2022-12-19T16:10:43;28.47;;;14.10;;
3847;SDS011;1939;48.720;9.166;2022-12-19T16:13:19;26.23;;;12.97;;
3847;SDS011;1939;48.720;9.166;2022-12-19T16:15:45;26.83;;;15.23;;
3847;SDS011;1939;48.720;9.166;2022-12-19T16:18:12;26.63;;;13.93;;
3847;SDS011;1939;48.720;9.166;2022-12-19T16:20:38;27.03;;;13.40;;
3847;SDS011;1939;48.720;9.166;2022-12-19T16:23:04;27.50;;;15.30;;
3847;SDS011;1939;48.720;9.166;2022-12-19T16:25:37;24.03;;;14.60;;
3847;SDS011;1939;48.720;9.166;2022-12-19T16:28:03;25.00;;;14.50;;
3847;SDS011;1939;48.720;9.166;2022-12-19T16:30:30;23.00;;;12.40;;
3847;SDS011;1939;48.720;9.166;2022-12-19T16:32:56;24.43;;;12.50;;
3847;SDS011;1939;48.720;9.166;2022-12-19T16:35:22;20.77;;;12.03;;